sensor_id;sensor_type;location;lat;lon;timestamp;temperature;humidity
64888;DHT22;51386;53.082;8.816;2022-11-15T00:00:56;10.80;77.70
64888;DHT22;51386;53.082;8.816;2022-11-15T00:03:27;10.80;77.80
64888;DHT22;51386;53.082;8.816;2022-11-15T00:05:55;10.80;77.90
64888;DHT22;51386;53.082;8.816;2022-11-15T00:08:29;10.80;78.00
64888;DHT22;51386;53.082;8.816;2022-11-15T00:10:57;10.70;78.00
64888;DHT22;51386;53.082;8.816;2022-11-15T00:13:26;10.70;78.10
64888;DHT22;51386;53.082;8.816;2022-11-15T00:15:57;10.70;78.50
64888;DHT22;51386;53.082;8.816;2022-11-15T00:18:25;10.70;78.60
64888;DHT22;51386;53.082;8.816;2022-11-15T00:20:52;10.70;78.70
64888;DHT22;51386;53.082;8.816;2022-11-15T00:23:19;10.60;78.70
64888;DHT22;51386;53.082;8.816;2022-11-15T00:25:46;10.60;78.80
64888;DHT22;51386;53.082;8.816;2022-11-15T00:28:13;10.60;79.00
64888;DHT22;51386;53.082;8.816;2022-11-15T00:30:40;10.60;79.20
64888;DHT22;51386;53.082;8.816;2022-11-15T00:33:09;10.50;79.20
64888;DHT22;51386;53.082;8.816;2022-11-15T00:35:36;10.60;79.40
64888;DHT22;51386;53.082;8.816;2022-11-15T00:38:03;10.60;79.30
64888;DHT22;51386;53.082;8.816;2022-11-15T00:40:30;10.50;79.20
64888;DHT22;51386;53.082;8.816;2022-11-15T00:42:57;10.60;79.20
64888;DHT22;51386;53.082;8.816;2022-11-15T00:45:25;10.60;79.30
64888;DHT22;51386;53.082;8.816;2022-11-15T00:47:53;10.60;79.20
64888;DHT22;51386;53.082;8.816;2022-11-15T00:50:21;10.60;79.20
64888;DHT22;51386;53.082;8.816;2022-11-15T00:52:48;10.60;79.20
64888;DHT22;51386;53.082;8.816;2022-11-15T00:55:16;10.60;79.10
64888;DHT22;51386;53.082;8.816;2022-11-15T00:57:44;10.60;79.00
64888;DHT22;51386;53.082;8.816;2022-11-15T01:00:13;10.60;79.00
64888;DHT22;51386;53.082;8.816;2022-11-15T01:02:40;10.60;79.00
64888;DHT22;51386;53.082;8.816;2022-11-15T01:05:08;10.60;78.90
64888;DHT22;51386;53.082;8.816;2022-11-15T01:07:36;10.60;78.90
64888;DHT22;51386;53.082;8.816;2022-11-15T01:10:04;10.60;78.90
64888;DHT22;51386;53.082;8.816;2022-11-15T01:12:31;10.60;78.80
64888;DHT22;51386;53.082;8.816;2022-11-15T01:14:59;10.60;78.90
64888;DHT22;51386;53.082;8.816;2022-11-15T01:17:26;10.60;78.80
64888;DHT22;51386;53.082;8.816;2022-11-15T01:19:53;10.60;78.80
64888;DHT22;51386;53.082;8.816;2022-11-15T01:22:20;10.60;78.80
64888;DHT22;51386;53.082;8.816;2022-11-15T01:24:50;10.60;78.80
64888;DHT22;51386;53.082;8.816;2022-11-15T01:27:17;10.60;78.80
64888;DHT22;51386;53.082;8.816;2022-11-15T01:29:44;10.60;78.90
64888;DHT22;51386;53.082;8.816;2022-11-15T01:32:11;10.50;78.70
64888;DHT22;51386;53.082;8.816;2022-11-15T01:34:38;10.60;78.70
64888;DHT22;51386;53.082;8.816;2022-11-15T01:37:06;10.50;78.70
64888;DHT22;51386;53.082;8.816;2022-11-15T01:39:33;10.50;78.70
64888;DHT22;51386;53.082;8.816;2022-11-15T01:42:02;10.50;78.70
64888;DHT22;51386;53.082;8.816;2022-11-15T01:44:38;10.50;78.70
64888;DHT22;51386;53.082;8.816;2022-11-15T01:47:13;10.50;78.60
64888;DHT22;51386;53.082;8.816;2022-11-15T01:49:50;10.50;78.50
64888;DHT22;51386;53.082;8.816;2022-11-15T01:52:25;10.50;78.50
64888;DHT22;51386;53.082;8.816;2022-11-15T01:55:00;10.40;78.50
64888;DHT22;51386;53.082;8.816;2022-11-15T01:57:33;10.40;78.60
64888;DHT22;51386;53.082;8.816;2022-11-15T02:00:03;10.40;78.70
64888;DHT22;51386;53.082;8.816;2022-11-15T02:02:32;10.30;78.70
64888;DHT22;51386;53.082;8.816;2022-11-15T02:05:02;10.30;78.90
64888;DHT22;51386;53.082;8.816;2022-11-15T02:07:31;10.20;79.20
64888;DHT22;51386;53.082;8.816;2022-11-15T02:10:06;10.20;79.30
64888;DHT22;51386;53.082;8.816;2022-11-15T02:12:36;10.20;79.40
64888;DHT22;51386;53.082;8.816;2022-11-15T02:15:05;10.20;79.50
64888;DHT22;51386;53.082;8.816;2022-11-15T02:17:58;10.30;79.70
64888;DHT22;51386;53.082;8.816;2022-11-15T02:20:57;10.30;79.70
64888;DHT22;51386;53.082;8.816;2022-11-15T02:30:29;10.40;79.50
64888;DHT22;51386;53.082;8.816;2022-11-15T02:33:14;10.50;79.50
64888;DHT22;51386;53.082;8.816;2022-11-15T02:35:57;10.50;79.20
64888;DHT22;51386;53.082;8.816;2022-11-15T02:38:32;10.50;78.90
64888;DHT22;51386;53.082;8.816;2022-11-15T02:41:09;10.60;78.80
64888;DHT22;51386;53.082;8.816;2022-11-15T02:43:46;10.70;78.70
64888;DHT22;51386;53.082;8.816;2022-11-15T02:46:33;10.70;78.70
64888;DHT22;51386;53.082;8.816;2022-11-15T02:49:22;10.70;78.50
64888;DHT22;51386;53.082;8.816;2022-11-15T02:51:52;10.80;78.60
64888;DHT22;51386;53.082;8.816;2022-11-15T02:54:24;10.80;78.50
64888;DHT22;51386;53.082;8.816;2022-11-15T02:56:54;10.90;79.30
64888;DHT22;51386;53.082;8.816;2022-11-15T02:59:51;10.90;78.60
64888;DHT22;51386;53.082;8.816;2022-11-15T03:02:51;10.90;78.60
64888;DHT22;51386;53.082;8.816;2022-11-15T03:05:40;10.90;78.60
64888;DHT22;51386;53.082;8.816;2022-11-15T03:08:17;11.00;78.70
64888;DHT22;51386;53.082;8.816;2022-11-15T03:10:59;11.00;78.70
64888;DHT22;51386;53.082;8.816;2022-11-15T03:13:36;11.10;78.90
64888;DHT22;51386;53.082;8.816;2022-11-15T03:16:14;11.10;79.10
64888;DHT22;51386;53.082;8.816;2022-11-15T03:18:51;11.20;79.20
64888;DHT22;51386;53.082;8.816;2022-11-15T03:21:22;11.20;79.30
64888;DHT22;51386;53.082;8.816;2022-11-15T03:23:52;11.20;79.30
64888;DHT22;51386;53.082;8.816;2022-11-15T03:26:23;11.30;79.40
64888;DHT22;51386;53.082;8.816;2022-11-15T03:28:55;11.30;79.40
64888;DHT22;51386;53.082;8.816;2022-11-15T03:31:28;11.30;79.40
64888;DHT22;51386;53.082;8.816;2022-11-15T03:34:25;11.40;79.50
64888;DHT22;51386;53.082;8.816;2022-11-15T03:36:56;11.40;80.10
64888;DHT22;51386;53.082;8.816;2022-11-15T03:39:23;11.50;79.30
64888;DHT22;51386;53.082;8.816;2022-11-15T03:42:01;11.60;79.30
64888;DHT22;51386;53.082;8.816;2022-11-15T03:44:42;11.60;79.20
64888;DHT22;51386;53.082;8.816;2022-11-15T03:47:18;11.60;79.10
64888;DHT22;51386;53.082;8.816;2022-11-15T03:49:53;11.60;79.10
64888;DHT22;51386;53.082;8.816;2022-11-15T03:52:25;11.70;79.30
64888;DHT22;51386;53.082;8.816;2022-11-15T03:54:59;11.70;79.20
64888;DHT22;51386;53.082;8.816;2022-11-15T03:57:28;11.70;79.30
64888;DHT22;51386;53.082;8.816;2022-11-15T03:59:55;11.70;79.20
64888;DHT22;51386;53.082;8.816;2022-11-15T04:02:22;11.70;79.10
64888;DHT22;51386;53.082;8.816;2022-11-15T04:04:50;11.70;79.10
64888;DHT22;51386;53.082;8.816;2022-11-15T04:07:17;11.70;79.20
64888;DHT22;51386;53.082;8.816;2022-11-15T04:09:45;11.70;79.20
64888;DHT22;51386;53.082;8.816;2022-11-15T04:12:30;11.80;79.30
64888;DHT22;51386;53.082;8.816;2022-11-15T04:14:59;11.80;79.30
64888;DHT22;51386;53.082;8.816;2022-11-15T04:17:38;11.80;79.30
64888;DHT22;51386;53.082;8.816;2022-11-15T04:20:10;11.80;79.40
64888;DHT22;51386;53.082;8.816;2022-11-15T04:22:58;11.80;79.40
64888;DHT22;51386;53.082;8.816;2022-11-15T04:25:45;11.80;79.30
64888;DHT22;51386;53.082;8.816;2022-11-15T04:28:15;11.80;79.40
64888;DHT22;51386;53.082;8.816;2022-11-15T04:30:42;11.80;79.40
64888;DHT22;51386;53.082;8.816;2022-11-15T04:33:09;11.80;79.40
64888;DHT22;51386;53.082;8.816;2022-11-15T04:35:38;11.80;79.50
64888;DHT22;51386;53.082;8.816;2022-11-15T04:38:07;11.80;79.60
64888;DHT22;51386;53.082;8.816;2022-11-15T04:40:37;11.80;79.70
64888;DHT22;51386;53.082;8.816;2022-11-15T04:43:05;11.90;79.80
64888;DHT22;51386;53.082;8.816;2022-11-15T04:45:32;11.90;79.80
64888;DHT22;51386;53.082;8.816;2022-11-15T04:47:59;11.90;79.80
64888;DHT22;51386;53.082;8.816;2022-11-15T04:50:26;12.00;80.00
64888;DHT22;51386;53.082;8.816;2022-11-15T04:52:54;12.00;79.90
64888;DHT22;51386;53.082;8.816;2022-11-15T04:55:21;12.00;79.80
64888;DHT22;51386;53.082;8.816;2022-11-15T04:57:57;12.00;79.80
64888;DHT22;51386;53.082;8.816;2022-11-15T05:00:26;12.10;80.00
64888;DHT22;51386;53.082;8.816;2022-11-15T05:02:54;12.10;79.90
64888;DHT22;51386;53.082;8.816;2022-11-15T05:05:41;12.10;79.80
64888;DHT22;51386;53.082;8.816;2022-11-15T05:08:09;12.10;79.70
64888;DHT22;51386;53.082;8.816;2022-11-15T05:10:36;12.20;79.70
64888;DHT22;51386;53.082;8.816;2022-11-15T05:13:03;12.20;79.70
64888;DHT22;51386;53.082;8.816;2022-11-15T05:15:30;12.20;79.70
64888;DHT22;51386;53.082;8.816;2022-11-15T05:17:58;12.20;79.70
64888;DHT22;51386;53.082;8.816;2022-11-15T05:20:26;12.30;79.80
64888;DHT22;51386;53.082;8.816;2022-11-15T05:22:53;12.30;79.70
64888;DHT22;51386;53.082;8.816;2022-11-15T05:25:23;12.30;79.70
64888;DHT22;51386;53.082;8.816;2022-11-15T05:27:51;12.30;79.80
64888;DHT22;51386;53.082;8.816;2022-11-15T05:30:18;12.30;79.70
64888;DHT22;51386;53.082;8.816;2022-11-15T05:32:45;12.30;79.70
64888;DHT22;51386;53.082;8.816;2022-11-15T05:35:15;12.30;79.70
64888;DHT22;51386;53.082;8.816;2022-11-15T05:37:46;12.30;79.80
64888;DHT22;51386;53.082;8.816;2022-11-15T05:40:15;12.30;80.00
64888;DHT22;51386;53.082;8.816;2022-11-15T05:42:44;12.40;80.10
64888;DHT22;51386;53.082;8.816;2022-11-15T05:45:12;12.30;80.10
64888;DHT22;51386;53.082;8.816;2022-11-15T05:47:40;12.40;80.30
64888;DHT22;51386;53.082;8.816;2022-11-15T05:50:10;12.40;81.20
64888;DHT22;51386;53.082;8.816;2022-11-15T05:52:39;12.40;80.40
64888;DHT22;51386;53.082;8.816;2022-11-15T05:55:07;12.40;80.50
64888;DHT22;51386;53.082;8.816;2022-11-15T05:57:35;12.40;80.50
64888;DHT22;51386;53.082;8.816;2022-11-15T06:00:05;12.40;80.50
64888;DHT22;51386;53.082;8.816;2022-11-15T06:02:34;12.40;80.50
64888;DHT22;51386;53.082;8.816;2022-11-15T06:05:02;12.50;80.60
64888;DHT22;51386;53.082;8.816;2022-11-15T06:07:36;12.50;80.70
64888;DHT22;51386;53.082;8.816;2022-11-15T06:10:08;12.50;80.80
64888;DHT22;51386;53.082;8.816;2022-11-15T06:12:35;12.50;80.80
64888;DHT22;51386;53.082;8.816;2022-11-15T06:15:04;12.50;80.80
64888;DHT22;51386;53.082;8.816;2022-11-15T06:17:32;12.50;80.80
64888;DHT22;51386;53.082;8.816;2022-11-15T06:19:59;12.60;80.90
64888;DHT22;51386;53.082;8.816;2022-11-15T06:22:26;12.60;80.90
64888;DHT22;51386;53.082;8.816;2022-11-15T06:24:53;12.60;80.90
64888;DHT22;51386;53.082;8.816;2022-11-15T06:27:20;12.70;81.00
64888;DHT22;51386;53.082;8.816;2022-11-15T06:29:47;12.70;81.00
64888;DHT22;51386;53.082;8.816;2022-11-15T06:32:15;12.70;81.00
64888;DHT22;51386;53.082;8.816;2022-11-15T06:34:42;12.70;81.10
64888;DHT22;51386;53.082;8.816;2022-11-15T06:37:09;12.70;81.00
64888;DHT22;51386;53.082;8.816;2022-11-15T06:39:36;12.70;81.90
64888;DHT22;51386;53.082;8.816;2022-11-15T06:42:03;12.70;81.10
64888;DHT22;51386;53.082;8.816;2022-11-15T06:44:31;12.80;81.30
64888;DHT22;51386;53.082;8.816;2022-11-15T06:46:58;12.80;81.40
64888;DHT22;51386;53.082;8.816;2022-11-15T06:49:26;12.80;81.40
64888;DHT22;51386;53.082;8.816;2022-11-15T06:51:53;12.80;81.40
64888;DHT22;51386;53.082;8.816;2022-11-15T06:54:20;12.80;81.50
64888;DHT22;51386;53.082;8.816;2022-11-15T06:56:47;12.80;81.50
64888;DHT22;51386;53.082;8.816;2022-11-15T06:59:14;12.80;81.40
64888;DHT22;51386;53.082;8.816;2022-11-15T07:01:41;12.90;81.60
64888;DHT22;51386;53.082;8.816;2022-11-15T07:04:08;12.90;81.70
64888;DHT22;51386;53.082;8.816;2022-11-15T07:06:37;12.90;81.60
64888;DHT22;51386;53.082;8.816;2022-11-15T07:09:04;12.90;81.70
64888;DHT22;51386;53.082;8.816;2022-11-15T07:11:32;12.90;81.80
64888;DHT22;51386;53.082;8.816;2022-11-15T07:14:00;13.00;81.90
64888;DHT22;51386;53.082;8.816;2022-11-15T07:16:28;13.00;81.90
64888;DHT22;51386;53.082;8.816;2022-11-15T07:18:55;13.00;82.00
64888;DHT22;51386;53.082;8.816;2022-11-15T07:21:22;13.00;81.90
64888;DHT22;51386;53.082;8.816;2022-11-15T07:23:56;13.00;81.90
64888;DHT22;51386;53.082;8.816;2022-11-15T07:26:23;13.10;82.00
64888;DHT22;51386;53.082;8.816;2022-11-15T07:28:50;13.10;82.00
64888;DHT22;51386;53.082;8.816;2022-11-15T07:31:17;13.10;82.00
64888;DHT22;51386;53.082;8.816;2022-11-15T07:33:44;13.10;82.10
64888;DHT22;51386;53.082;8.816;2022-11-15T07:36:11;13.10;82.30
64888;DHT22;51386;53.082;8.816;2022-11-15T07:38:38;13.20;82.40
64888;DHT22;51386;53.082;8.816;2022-11-15T07:41:10;13.10;82.40
64888;DHT22;51386;53.082;8.816;2022-11-15T07:43:37;13.20;82.40
64888;DHT22;51386;53.082;8.816;2022-11-15T07:46:08;13.20;82.50
64888;DHT22;51386;53.082;8.816;2022-11-15T07:48:37;13.30;83.40
64888;DHT22;51386;53.082;8.816;2022-11-15T07:51:11;13.30;82.80
64888;DHT22;51386;53.082;8.816;2022-11-15T07:53:40;13.30;82.60
64888;DHT22;51386;53.082;8.816;2022-11-15T07:56:09;13.40;82.80
64888;DHT22;51386;53.082;8.816;2022-11-15T07:58:37;13.40;82.70
64888;DHT22;51386;53.082;8.816;2022-11-15T08:01:04;13.50;82.70
64888;DHT22;51386;53.082;8.816;2022-11-15T08:03:32;13.50;82.60
64888;DHT22;51386;53.082;8.816;2022-11-15T08:06:00;13.50;82.50
64888;DHT22;51386;53.082;8.816;2022-11-15T08:08:29;13.60;82.40
64888;DHT22;51386;53.082;8.816;2022-11-15T08:10:57;13.60;82.30
64888;DHT22;51386;53.082;8.816;2022-11-15T08:13:26;13.70;82.20
64888;DHT22;51386;53.082;8.816;2022-11-15T08:15:57;13.70;82.10
64888;DHT22;51386;53.082;8.816;2022-11-15T08:18:25;13.80;82.00
64888;DHT22;51386;53.082;8.816;2022-11-15T08:20:52;13.80;81.90
64888;DHT22;51386;53.082;8.816;2022-11-15T08:23:19;13.90;81.90
64888;DHT22;51386;53.082;8.816;2022-11-15T08:25:46;13.90;81.70
64888;DHT22;51386;53.082;8.816;2022-11-15T08:28:15;14.00;81.60
64888;DHT22;51386;53.082;8.816;2022-11-15T08:30:44;14.00;81.50
64888;DHT22;51386;53.082;8.816;2022-11-15T08:33:13;14.00;81.30
64888;DHT22;51386;53.082;8.816;2022-11-15T08:35:41;14.10;81.30
64888;DHT22;51386;53.082;8.816;2022-11-15T08:38:09;14.10;81.30
64888;DHT22;51386;53.082;8.816;2022-11-15T08:40:37;14.20;81.30
64888;DHT22;51386;53.082;8.816;2022-11-15T08:43:04;14.20;81.10
64888;DHT22;51386;53.082;8.816;2022-11-15T08:45:34;14.30;81.10
64888;DHT22;51386;53.082;8.816;2022-11-15T08:48:03;14.30;80.90
64888;DHT22;51386;53.082;8.816;2022-11-15T08:50:31;14.40;80.80
64888;DHT22;51386;53.082;8.816;2022-11-15T08:53:04;14.40;80.70
64888;DHT22;51386;53.082;8.816;2022-11-15T08:55:32;14.40;80.50
64888;DHT22;51386;53.082;8.816;2022-11-15T08:58:02;14.40;80.50
64888;DHT22;51386;53.082;8.816;2022-11-15T09:00:30;14.50;80.60
64888;DHT22;51386;53.082;8.816;2022-11-15T09:02:57;14.50;80.50
64888;DHT22;51386;53.082;8.816;2022-11-15T09:05:25;14.60;80.50
64888;DHT22;51386;53.082;8.816;2022-11-15T09:07:53;14.60;80.30
64888;DHT22;51386;53.082;8.816;2022-11-15T09:10:21;14.60;80.20
64888;DHT22;51386;53.082;8.816;2022-11-15T09:12:48;14.70;80.10
64888;DHT22;51386;53.082;8.816;2022-11-15T09:15:16;14.70;79.80
64888;DHT22;51386;53.082;8.816;2022-11-15T09:17:43;14.70;80.50
64888;DHT22;51386;53.082;8.816;2022-11-15T09:20:11;14.70;79.60
64888;DHT22;51386;53.082;8.816;2022-11-15T09:22:39;14.70;79.60
64888;DHT22;51386;53.082;8.816;2022-11-15T09:25:07;14.70;79.60
64888;DHT22;51386;53.082;8.816;2022-11-15T09:27:37;14.70;79.60
64888;DHT22;51386;53.082;8.816;2022-11-15T09:30:05;14.70;79.60
64888;DHT22;51386;53.082;8.816;2022-11-15T09:32:32;14.80;79.70
64888;DHT22;51386;53.082;8.816;2022-11-15T09:35:05;14.70;79.60
64888;DHT22;51386;53.082;8.816;2022-11-15T09:37:33;14.70;79.50
64888;DHT22;51386;53.082;8.816;2022-11-15T09:40:01;14.70;80.30
64888;DHT22;51386;53.082;8.816;2022-11-15T09:42:41;14.70;79.60
64888;DHT22;51386;53.082;8.816;2022-11-15T09:45:23;14.70;79.60
64888;DHT22;51386;53.082;8.816;2022-11-15T09:51:12;14.70;79.80
64888;DHT22;51386;53.082;8.816;2022-11-15T09:53:49;14.80;79.80
64888;DHT22;51386;53.082;8.816;2022-11-15T09:56:44;14.80;79.70
64888;DHT22;51386;53.082;8.816;2022-11-15T09:59:23;14.80;79.50
64888;DHT22;51386;53.082;8.816;2022-11-15T10:02:18;14.90;79.60
64888;DHT22;51386;53.082;8.816;2022-11-15T10:04:58;15.00;79.40
64888;DHT22;51386;53.082;8.816;2022-11-15T10:07:34;15.00;79.20
64888;DHT22;51386;53.082;8.816;2022-11-15T10:10:16;15.10;79.30
64888;DHT22;51386;53.082;8.816;2022-11-15T10:12:53;15.10;79.40
64888;DHT22;51386;53.082;8.816;2022-11-15T10:15:21;15.20;79.00
64888;DHT22;51386;53.082;8.816;2022-11-15T10:18:14;15.30;79.00
64888;DHT22;51386;53.082;8.816;2022-11-15T10:20:48;15.40;78.70
64888;DHT22;51386;53.082;8.816;2022-11-15T10:23:19;15.40;78.10
64888;DHT22;51386;53.082;8.816;2022-11-15T10:25:50;15.50;78.10
64888;DHT22;51386;53.082;8.816;2022-11-15T10:28:25;15.50;77.70
64888;DHT22;51386;53.082;8.816;2022-11-15T10:30:55;15.60;77.60
64888;DHT22;51386;53.082;8.816;2022-11-15T10:33:26;15.60;77.60
64888;DHT22;51386;53.082;8.816;2022-11-15T10:36:18;15.60;77.60
64888;DHT22;51386;53.082;8.816;2022-11-15T10:38:57;15.70;77.70
64888;DHT22;51386;53.082;8.816;2022-11-15T10:41:35;15.70;77.50
64888;DHT22;51386;53.082;8.816;2022-11-15T10:44:21;15.70;77.30
64888;DHT22;51386;53.082;8.816;2022-11-15T10:47:25;15.80;77.20
64888;DHT22;51386;53.082;8.816;2022-11-15T10:49:58;15.80;77.00
64888;DHT22;51386;53.082;8.816;2022-11-15T10:52:29;15.80;76.90
64888;DHT22;51386;53.082;8.816;2022-11-15T10:55:03;15.90;76.90
64888;DHT22;51386;53.082;8.816;2022-11-15T10:57:39;16.00;77.00
64888;DHT22;51386;53.082;8.816;2022-11-15T11:00:28;16.00;77.00
64888;DHT22;51386;53.082;8.816;2022-11-15T11:02:59;16.10;76.70
64888;DHT22;51386;53.082;8.816;2022-11-15T11:05:30;16.20;76.20
64888;DHT22;51386;53.082;8.816;2022-11-15T11:08:21;16.30;75.90
64888;DHT22;51386;53.082;8.816;2022-11-15T11:10:52;16.30;75.50
64888;DHT22;51386;53.082;8.816;2022-11-15T11:13:30;16.40;75.60
64888;DHT22;51386;53.082;8.816;2022-11-15T11:16:14;16.50;75.50
64888;DHT22;51386;53.082;8.816;2022-11-15T11:18:57;16.50;75.00
64888;DHT22;51386;53.082;8.816;2022-11-15T11:21:42;16.60;74.80
64888;DHT22;51386;53.082;8.816;2022-11-15T11:24:21;16.70;74.70
64888;DHT22;51386;53.082;8.816;2022-11-15T11:27:11;16.80;74.30
64888;DHT22;51386;53.082;8.816;2022-11-15T11:30:04;16.90;73.20
64888;DHT22;51386;53.082;8.816;2022-11-15T11:33:02;17.00;73.30
64888;DHT22;51386;53.082;8.816;2022-11-15T11:38:57;17.10;73.00
64888;DHT22;51386;53.082;8.816;2022-11-15T11:41:43;17.10;72.50
64888;DHT22;51386;53.082;8.816;2022-11-15T11:44:30;17.20;72.50
64888;DHT22;51386;53.082;8.816;2022-11-15T11:47:05;17.20;72.20
64888;DHT22;51386;53.082;8.816;2022-11-15T11:49:43;17.20;72.20
64888;DHT22;51386;53.082;8.816;2022-11-15T11:52:18;17.30;72.10
64888;DHT22;51386;53.082;8.816;2022-11-15T11:54:55;17.30;72.00
64888;DHT22;51386;53.082;8.816;2022-11-15T11:57:33;17.30;71.40
64888;DHT22;51386;53.082;8.816;2022-11-15T12:00:17;17.40;71.10
64888;DHT22;51386;53.082;8.816;2022-11-15T12:02:51;17.40;70.90
64888;DHT22;51386;53.082;8.816;2022-11-15T12:05:35;17.40;70.30
64888;DHT22;51386;53.082;8.816;2022-11-15T12:08:18;17.30;70.30
64888;DHT22;51386;53.082;8.816;2022-11-15T12:10:58;17.40;70.50
64888;DHT22;51386;53.082;8.816;2022-11-15T12:13:30;17.40;70.50
64888;DHT22;51386;53.082;8.816;2022-11-15T12:16:07;17.40;70.30
64888;DHT22;51386;53.082;8.816;2022-11-15T12:18:44;17.50;70.50
64888;DHT22;51386;53.082;8.816;2022-11-15T12:21:21;17.50;70.40
64888;DHT22;51386;53.082;8.816;2022-11-15T12:24:00;17.50;70.10
64888;DHT22;51386;53.082;8.816;2022-11-15T12:26:35;17.50;70.10
64888;DHT22;51386;53.082;8.816;2022-11-15T12:29:11;17.50;69.70
64888;DHT22;51386;53.082;8.816;2022-11-15T12:31:45;17.50;70.00
64888;DHT22;51386;53.082;8.816;2022-11-15T12:34:40;17.50;70.10
64888;DHT22;51386;53.082;8.816;2022-11-15T12:40:30;17.60;69.50
64888;DHT22;51386;53.082;8.816;2022-11-15T12:46:12;17.60;69.40
64888;DHT22;51386;53.082;8.816;2022-11-15T12:48:52;17.60;68.30
64888;DHT22;51386;53.082;8.816;2022-11-15T12:51:23;17.60;68.50
64888;DHT22;51386;53.082;8.816;2022-11-15T12:54:55;17.60;68.50
64888;DHT22;51386;53.082;8.816;2022-11-15T12:57:37;17.70;68.80
64888;DHT22;51386;53.082;8.816;2022-11-15T13:00:37;17.70;69.80
64888;DHT22;51386;53.082;8.816;2022-11-15T13:03:27;17.60;69.90
64888;DHT22;51386;53.082;8.816;2022-11-15T13:06:05;17.60;70.10
64888;DHT22;51386;53.082;8.816;2022-11-15T13:08:49;17.70;70.40
64888;DHT22;51386;53.082;8.816;2022-11-15T13:11:53;17.70;70.70
64888;DHT22;51386;53.082;8.816;2022-11-15T13:14:44;17.60;70.20
64888;DHT22;51386;53.082;8.816;2022-11-15T13:17:28;17.70;70.10
64888;DHT22;51386;53.082;8.816;2022-11-15T13:20:19;17.70;69.50
64888;DHT22;51386;53.082;8.816;2022-11-15T13:22:50;17.80;69.40
64888;DHT22;51386;53.082;8.816;2022-11-15T13:25:48;17.70;68.60
64888;DHT22;51386;53.082;8.816;2022-11-15T13:28:30;17.80;68.00
64888;DHT22;51386;53.082;8.816;2022-11-15T13:31:03;17.80;67.50
64888;DHT22;51386;53.082;8.816;2022-11-15T13:33:44;17.80;65.60
64888;DHT22;51386;53.082;8.816;2022-11-15T13:36:15;17.80;64.20
64888;DHT22;51386;53.082;8.816;2022-11-15T13:38:55;17.70;62.70
64888;DHT22;51386;53.082;8.816;2022-11-15T13:41:26;17.70;63.00
64888;DHT22;51386;53.082;8.816;2022-11-15T13:43:57;17.70;62.80
64888;DHT22;51386;53.082;8.816;2022-11-15T13:46:27;17.80;62.50
64888;DHT22;51386;53.082;8.816;2022-11-15T13:48:57;17.80;62.60
64888;DHT22;51386;53.082;8.816;2022-11-15T13:51:35;17.90;62.00
64888;DHT22;51386;53.082;8.816;2022-11-15T13:54:09;17.90;61.30
64888;DHT22;51386;53.082;8.816;2022-11-15T13:56:49;18.00;60.60
64888;DHT22;51386;53.082;8.816;2022-11-15T13:59:24;18.00;60.50
64888;DHT22;51386;53.082;8.816;2022-11-15T14:01:53;18.00;59.50
64888;DHT22;51386;53.082;8.816;2022-11-15T14:04:25;17.90;59.10
64888;DHT22;51386;53.082;8.816;2022-11-15T14:06:57;17.90;59.40
64888;DHT22;51386;53.082;8.816;2022-11-15T14:09:32;17.90;59.00
64888;DHT22;51386;53.082;8.816;2022-11-15T14:12:28;17.90;59.00
64888;DHT22;51386;53.082;8.816;2022-11-15T14:14:59;17.70;58.90
64888;DHT22;51386;53.082;8.816;2022-11-15T14:17:37;17.70;59.30
64888;DHT22;51386;53.082;8.816;2022-11-15T14:20:27;17.70;59.30
64888;DHT22;51386;53.082;8.816;2022-11-15T14:22:58;17.70;60.60
64888;DHT22;51386;53.082;8.816;2022-11-15T14:25:28;17.70;59.90
64888;DHT22;51386;53.082;8.816;2022-11-15T14:28:16;17.60;60.20
64888;DHT22;51386;53.082;8.816;2022-11-15T14:30:59;17.60;60.30
64888;DHT22;51386;53.082;8.816;2022-11-15T14:33:29;17.50;60.20
64888;DHT22;51386;53.082;8.816;2022-11-15T14:36:03;17.50;60.10
64888;DHT22;51386;53.082;8.816;2022-11-15T14:38:32;17.50;60.70
64888;DHT22;51386;53.082;8.816;2022-11-15T14:41:00;17.40;60.60
64888;DHT22;51386;53.082;8.816;2022-11-15T14:43:27;17.40;60.60
64888;DHT22;51386;53.082;8.816;2022-11-15T14:45:55;17.30;60.70
64888;DHT22;51386;53.082;8.816;2022-11-15T14:48:24;17.30;60.80
64888;DHT22;51386;53.082;8.816;2022-11-15T14:50:51;17.20;60.80
64888;DHT22;51386;53.082;8.816;2022-11-15T14:53:19;17.20;61.10
64888;DHT22;51386;53.082;8.816;2022-11-15T14:55:47;17.10;62.20
64888;DHT22;51386;53.082;8.816;2022-11-15T14:58:14;17.10;61.70
64888;DHT22;51386;53.082;8.816;2022-11-15T15:00:41;17.00;61.70
64888;DHT22;51386;53.082;8.816;2022-11-15T15:03:09;17.00;62.00
64888;DHT22;51386;53.082;8.816;2022-11-15T15:05:40;17.00;62.30
64888;DHT22;51386;53.082;8.816;2022-11-15T15:08:10;16.90;62.40
64888;DHT22;51386;53.082;8.816;2022-11-15T15:10:40;16.80;62.60
64888;DHT22;51386;53.082;8.816;2022-11-15T15:13:16;16.80;63.00
64888;DHT22;51386;53.082;8.816;2022-11-15T15:15:44;16.80;63.40
64888;DHT22;51386;53.082;8.816;2022-11-15T15:18:11;16.70;63.80
64888;DHT22;51386;53.082;8.816;2022-11-15T15:20:41;16.70;64.50
64888;DHT22;51386;53.082;8.816;2022-11-15T15:23:15;16.60;65.30
64888;DHT22;51386;53.082;8.816;2022-11-15T15:25:44;16.60;65.90
64888;DHT22;51386;53.082;8.816;2022-11-15T15:28:12;16.50;66.60
64888;DHT22;51386;53.082;8.816;2022-11-15T15:30:40;16.50;67.00
64888;DHT22;51386;53.082;8.816;2022-11-15T15:33:07;16.40;67.40
64888;DHT22;51386;53.082;8.816;2022-11-15T15:35:35;16.30;67.90
64888;DHT22;51386;53.082;8.816;2022-11-15T15:38:03;16.30;68.30
64888;DHT22;51386;53.082;8.816;2022-11-15T15:40:32;16.20;68.60
64888;DHT22;51386;53.082;8.816;2022-11-15T15:43:00;16.20;69.10
64888;DHT22;51386;53.082;8.816;2022-11-15T15:45:27;16.10;69.30
64888;DHT22;51386;53.082;8.816;2022-11-15T15:47:56;16.10;69.70
64888;DHT22;51386;53.082;8.816;2022-11-15T15:50:24;16.00;69.80
64888;DHT22;51386;53.082;8.816;2022-11-15T15:52:54;16.00;70.20
64888;DHT22;51386;53.082;8.816;2022-11-15T15:55:24;15.90;70.30
64888;DHT22;51386;53.082;8.816;2022-11-15T15:57:52;15.80;70.40
64888;DHT22;51386;53.082;8.816;2022-11-15T16:00:20;15.80;70.40
64888;DHT22;51386;53.082;8.816;2022-11-15T16:02:49;15.80;70.80
64888;DHT22;51386;53.082;8.816;2022-11-15T16:05:17;15.70;71.00
64888;DHT22;51386;53.082;8.816;2022-11-15T16:07:44;15.70;71.20
64888;DHT22;51386;53.082;8.816;2022-11-15T16:10:20;15.60;71.20
64888;DHT22;51386;53.082;8.816;2022-11-15T16:12:52;15.60;71.40
64888;DHT22;51386;53.082;8.816;2022-11-15T16:15:20;15.60;71.60
64888;DHT22;51386;53.082;8.816;2022-11-15T16:17:50;15.50;71.60
64888;DHT22;51386;53.082;8.816;2022-11-15T16:20:37;15.50;71.90
64888;DHT22;51386;53.082;8.816;2022-11-15T16:23:07;15.50;72.00
64888;DHT22;51386;53.082;8.816;2022-11-15T16:25:44;15.50;72.10